sensor_id;sensor_type;location;lat;lon;timestamp;temperature;humidity
33715;DHT22;20043;50.998;4.754;2023-05-07T00:00:03;17.60;99.90
33715;DHT22;20043;50.998;4.754;2023-05-07T00:02:32;17.70;99.90
33715;DHT22;20043;50.998;4.754;2023-05-07T00:04:57;17.70;99.90
33715;DHT22;20043;50.998;4.754;2023-05-07T00:07:23;17.80;99.90
33715;DHT22;20043;50.998;4.754;2023-05-07T00:09:49;17.90;99.90
33715;DHT22;20043;50.998;4.754;2023-05-07T00:12:15;17.90;99.90
33715;DHT22;20043;50.998;4.754;2023-05-07T00:14:41;17.70;99.90
33715;DHT22;20043;50.998;4.754;2023-05-07T00:17:06;17.60;99.90
33715;DHT22;20043;50.998;4.754;2023-05-07T00:19:32;17.70;99.90
33715;DHT22;20043;50.998;4.754;2023-05-07T00:21:58;17.60;99.90
33715;DHT22;20043;50.998;4.754;2023-05-07T00:24:24;17.50;99.90
33715;DHT22;20043;50.998;4.754;2023-05-07T00:26:49;17.40;99.90
33715;DHT22;20043;50.998;4.754;2023-05-07T00:29:15;17.30;99.90
33715;DHT22;20043;50.998;4.754;2023-05-07T00:31:41;17.30;99.90
33715;DHT22;20043;50.998;4.754;2023-05-07T00:34:06;17.40;99.90
33715;DHT22;20043;50.998;4.754;2023-05-07T00:36:32;17.40;99.90
33715;DHT22;20043;50.998;4.754;2023-05-07T00:38:59;17.50;99.90
33715;DHT22;20043;50.998;4.754;2023-05-07T00:41:25;17.40;99.90
33715;DHT22;20043;50.998;4.754;2023-05-07T00:43:51;17.40;99.90
33715;DHT22;20043;50.998;4.754;2023-05-07T00:46:18;17.50;99.90
33715;DHT22;20043;50.998;4.754;2023-05-07T00:48:45;17.50;99.90
33715;DHT22;20043;50.998;4.754;2023-05-07T00:51:11;17.50;99.90
33715;DHT22;20043;50.998;4.754;2023-05-07T00:53:37;17.40;99.90
33715;DHT22;20043;50.998;4.754;2023-05-07T00:56:03;17.40;99.90
33715;DHT22;20043;50.998;4.754;2023-05-07T00:58:30;17.30;99.90
33715;DHT22;20043;50.998;4.754;2023-05-07T01:00:56;17.40;99.90
33715;DHT22;20043;50.998;4.754;2023-05-07T01:03:21;17.40;99.90
33715;DHT22;20043;50.998;4.754;2023-05-07T01:05:48;17.40;99.90
33715;DHT22;20043;50.998;4.754;2023-05-07T01:08:15;17.40;99.90
33715;DHT22;20043;50.998;4.754;2023-05-07T01:10:41;17.40;99.90
33715;DHT22;20043;50.998;4.754;2023-05-07T01:13:09;17.40;99.90
33715;DHT22;20043;50.998;4.754;2023-05-07T01:15:36;17.30;99.90
33715;DHT22;20043;50.998;4.754;2023-05-07T01:18:01;17.40;99.90
33715;DHT22;20043;50.998;4.754;2023-05-07T01:20:28;17.50;99.90
33715;DHT22;20043;50.998;4.754;2023-05-07T01:22:53;17.60;99.90
33715;DHT22;20043;50.998;4.754;2023-05-07T01:25:20;17.70;99.90
33715;DHT22;20043;50.998;4.754;2023-05-07T01:27:46;17.60;99.90
33715;DHT22;20043;50.998;4.754;2023-05-07T01:30:12;17.60;99.90
33715;DHT22;20043;50.998;4.754;2023-05-07T01:32:42;17.40;99.90
33715;DHT22;20043;50.998;4.754;2023-05-07T01:35:11;17.20;99.90
33715;DHT22;20043;50.998;4.754;2023-05-07T01:37:39;17.20;99.90
33715;DHT22;20043;50.998;4.754;2023-05-07T01:40:05;17.10;99.90
33715;DHT22;20043;50.998;4.754;2023-05-07T01:42:32;17.10;99.90
33715;DHT22;20043;50.998;4.754;2023-05-07T01:44:59;17.10;99.90
33715;DHT22;20043;50.998;4.754;2023-05-07T01:47:25;17.00;99.90
33715;DHT22;20043;50.998;4.754;2023-05-07T01:49:52;17.10;99.90
33715;DHT22;20043;50.998;4.754;2023-05-07T01:52:17;17.20;99.90
33715;DHT22;20043;50.998;4.754;2023-05-07T01:54:43;17.30;99.90
33715;DHT22;20043;50.998;4.754;2023-05-07T01:57:09;17.30;99.90
33715;DHT22;20043;50.998;4.754;2023-05-07T01:59:34;17.20;99.90
33715;DHT22;20043;50.998;4.754;2023-05-07T02:02:00;17.20;99.90
33715;DHT22;20043;50.998;4.754;2023-05-07T02:04:26;17.30;99.90
33715;DHT22;20043;50.998;4.754;2023-05-07T02:06:51;17.30;99.90
33715;DHT22;20043;50.998;4.754;2023-05-07T02:09:18;17.20;99.90
33715;DHT22;20043;50.998;4.754;2023-05-07T02:11:44;17.10;99.90
33715;DHT22;20043;50.998;4.754;2023-05-07T02:14:10;17.20;99.90
33715;DHT22;20043;50.998;4.754;2023-05-07T02:16:35;17.20;99.90
33715;DHT22;20043;50.998;4.754;2023-05-07T02:19:01;17.20;99.90
33715;DHT22;20043;50.998;4.754;2023-05-07T02:21:27;17.20;99.90
33715;DHT22;20043;50.998;4.754;2023-05-07T02:23:53;17.10;99.90
33715;DHT22;20043;50.998;4.754;2023-05-07T02:26:19;17.20;99.90
33715;DHT22;20043;50.998;4.754;2023-05-07T02:28:44;17.20;99.90
33715;DHT22;20043;50.998;4.754;2023-05-07T02:31:10;17.30;99.90
33715;DHT22;20043;50.998;4.754;2023-05-07T02:33:36;17.20;99.90
33715;DHT22;20043;50.998;4.754;2023-05-07T02:36:12;17.20;99.90
33715;DHT22;20043;50.998;4.754;2023-05-07T02:38:38;17.20;99.90
33715;DHT22;20043;50.998;4.754;2023-05-07T02:41:03;17.10;99.90
33715;DHT22;20043;50.998;4.754;2023-05-07T02:43:29;17.10;99.90
33715;DHT22;20043;50.998;4.754;2023-05-07T02:46:08;17.10;99.90
33715;DHT22;20043;50.998;4.754;2023-05-07T02:48:34;17.00;99.90
33715;DHT22;20043;50.998;4.754;2023-05-07T02:51:00;16.90;99.90
33715;DHT22;20043;50.998;4.754;2023-05-07T02:53:26;16.90;99.90
33715;DHT22;20043;50.998;4.754;2023-05-07T02:56:01;16.70;99.90
33715;DHT22;20043;50.998;4.754;2023-05-07T02:58:27;16.80;99.90
33715;DHT22;20043;50.998;4.754;2023-05-07T03:00:53;16.60;99.90
33715;DHT22;20043;50.998;4.754;2023-05-07T03:03:20;16.60;99.90
33715;DHT22;20043;50.998;4.754;2023-05-07T03:05:46;16.80;99.90
33715;DHT22;20043;50.998;4.754;2023-05-07T03:08:12;17.00;99.90
33715;DHT22;20043;50.998;4.754;2023-05-07T03:10:37;17.10;99.90
33715;DHT22;20043;50.998;4.754;2023-05-07T03:13:03;17.20;99.90
33715;DHT22;20043;50.998;4.754;2023-05-07T03:15:29;17.20;99.90
33715;DHT22;20043;50.998;4.754;2023-05-07T03:17:55;16.90;99.90
33715;DHT22;20043;50.998;4.754;2023-05-07T03:20:20;16.80;99.90
33715;DHT22;20043;50.998;4.754;2023-05-07T03:22:46;16.80;99.90
33715;DHT22;20043;50.998;4.754;2023-05-07T03:25:12;16.80;99.90
33715;DHT22;20043;50.998;4.754;2023-05-07T03:27:38;16.80;99.90
33715;DHT22;20043;50.998;4.754;2023-05-07T03:30:04;16.80;99.90
33715;DHT22;20043;50.998;4.754;2023-05-07T03:32:30;16.90;99.90
33715;DHT22;20043;50.998;4.754;2023-05-07T03:34:55;16.90;99.90
33715;DHT22;20043;50.998;4.754;2023-05-07T03:37:21;17.00;99.90
33715;DHT22;20043;50.998;4.754;2023-05-07T03:39:47;17.10;99.90
33715;DHT22;20043;50.998;4.754;2023-05-07T03:42:14;17.10;99.90
33715;DHT22;20043;50.998;4.754;2023-05-07T03:44:40;17.20;99.90
33715;DHT22;20043;50.998;4.754;2023-05-07T03:47:05;17.20;99.90
33715;DHT22;20043;50.998;4.754;2023-05-07T03:49:31;17.20;99.90
33715;DHT22;20043;50.998;4.754;2023-05-07T03:51:56;17.20;99.90
33715;DHT22;20043;50.998;4.754;2023-05-07T03:54:22;17.20;99.90
33715;DHT22;20043;50.998;4.754;2023-05-07T03:56:48;17.10;99.90
33715;DHT22;20043;50.998;4.754;2023-05-07T03:59:13;17.10;99.90
33715;DHT22;20043;50.998;4.754;2023-05-07T04:01:39;17.10;99.90
33715;DHT22;20043;50.998;4.754;2023-05-07T04:04:05;17.20;99.90
33715;DHT22;20043;50.998;4.754;2023-05-07T04:06:31;17.20;99.90
33715;DHT22;20043;50.998;4.754;2023-05-07T04:08:57;17.20;99.90
33715;DHT22;20043;50.998;4.754;2023-05-07T04:11:23;17.30;99.90
33715;DHT22;20043;50.998;4.754;2023-05-07T04:13:48;17.30;99.90
33715;DHT22;20043;50.998;4.754;2023-05-07T04:16:14;17.30;99.90
33715;DHT22;20043;50.998;4.754;2023-05-07T04:18:40;17.30;99.90
33715;DHT22;20043;50.998;4.754;2023-05-07T04:21:13;17.30;99.90
33715;DHT22;20043;50.998;4.754;2023-05-07T04:23:38;17.30;99.90
33715;DHT22;20043;50.998;4.754;2023-05-07T04:26:04;17.30;99.90
33715;DHT22;20043;50.998;4.754;2023-05-07T04:28:29;17.20;99.90
33715;DHT22;20043;50.998;4.754;2023-05-07T04:30:55;17.20;99.90
33715;DHT22;20043;50.998;4.754;2023-05-07T04:33:21;17.20;99.90
33715;DHT22;20043;50.998;4.754;2023-05-07T04:35:53;17.20;99.90
33715;DHT22;20043;50.998;4.754;2023-05-07T04:38:18;17.20;99.90
33715;DHT22;20043;50.998;4.754;2023-05-07T04:40:44;17.20;99.90
33715;DHT22;20043;50.998;4.754;2023-05-07T04:43:10;17.10;99.90
33715;DHT22;20043;50.998;4.754;2023-05-07T04:45:36;17.20;99.90
33715;DHT22;20043;50.998;4.754;2023-05-07T04:48:02;17.30;99.90
33715;DHT22;20043;50.998;4.754;2023-05-07T04:50:28;17.20;99.90
33715;DHT22;20043;50.998;4.754;2023-05-07T04:52:53;17.20;99.90
33715;DHT22;20043;50.998;4.754;2023-05-07T04:55:19;17.10;99.90
33715;DHT22;20043;50.998;4.754;2023-05-07T04:57:45;17.10;99.90
33715;DHT22;20043;50.998;4.754;2023-05-07T05:00:11;17.10;99.90
33715;DHT22;20043;50.998;4.754;2023-05-07T05:02:40;17.10;99.90
33715;DHT22;20043;50.998;4.754;2023-05-07T05:05:06;17.10;99.90
33715;DHT22;20043;50.998;4.754;2023-05-07T05:07:32;17.20;99.90
33715;DHT22;20043;50.998;4.754;2023-05-07T05:09:58;17.10;99.90
33715;DHT22;20043;50.998;4.754;2023-05-07T05:12:23;17.20;99.90
33715;DHT22;20043;50.998;4.754;2023-05-07T05:14:49;17.20;99.90
33715;DHT22;20043;50.998;4.754;2023-05-07T05:17:15;17.20;99.90
33715;DHT22;20043;50.998;4.754;2023-05-07T05:19:40;17.30;99.90
33715;DHT22;20043;50.998;4.754;2023-05-07T05:22:06;17.50;99.90
33715;DHT22;20043;50.998;4.754;2023-05-07T05:24:32;17.60;99.90
33715;DHT22;20043;50.998;4.754;2023-05-07T05:26:57;17.60;99.90
33715;DHT22;20043;50.998;4.754;2023-05-07T05:29:25;17.70;99.90
33715;DHT22;20043;50.998;4.754;2023-05-07T05:31:50;17.70;99.90
33715;DHT22;20043;50.998;4.754;2023-05-07T05:34:23;17.70;99.90
33715;DHT22;20043;50.998;4.754;2023-05-07T05:36:48;17.70;99.90
33715;DHT22;20043;50.998;4.754;2023-05-07T05:39:14;17.70;99.90
33715;DHT22;20043;50.998;4.754;2023-05-07T05:41:40;17.70;99.90
33715;DHT22;20043;50.998;4.754;2023-05-07T05:44:06;17.60;99.90
33715;DHT22;20043;50.998;4.754;2023-05-07T05:46:31;17.60;99.90
33715;DHT22;20043;50.998;4.754;2023-05-07T05:48:57;17.80;99.90
33715;DHT22;20043;50.998;4.754;2023-05-07T05:51:23;17.80;99.90
33715;DHT22;20043;50.998;4.754;2023-05-07T05:53:48;17.80;99.90
33715;DHT22;20043;50.998;4.754;2023-05-07T05:56:15;17.90;99.90
33715;DHT22;20043;50.998;4.754;2023-05-07T05:58:41;17.70;99.90
33715;DHT22;20043;50.998;4.754;2023-05-07T06:01:06;17.80;99.90
33715;DHT22;20043;50.998;4.754;2023-05-07T06:03:32;17.70;99.90
33715;DHT22;20043;50.998;4.754;2023-05-07T06:05:58;17.70;99.90
33715;DHT22;20043;50.998;4.754;2023-05-07T06:08:25;17.80;99.90
33715;DHT22;20043;50.998;4.754;2023-05-07T06:10:51;17.90;99.90
33715;DHT22;20043;50.998;4.754;2023-05-07T06:13:17;17.90;99.90
33715;DHT22;20043;50.998;4.754;2023-05-07T06:15:42;18.00;99.90
33715;DHT22;20043;50.998;4.754;2023-05-07T06:18:08;18.10;99.90
33715;DHT22;20043;50.998;4.754;2023-05-07T06:20:33;18.10;99.90
33715;DHT22;20043;50.998;4.754;2023-05-07T06:22:59;18.00;99.90
33715;DHT22;20043;50.998;4.754;2023-05-07T06:25:25;17.90;99.90
33715;DHT22;20043;50.998;4.754;2023-05-07T06:27:51;17.90;99.90
33715;DHT22;20043;50.998;4.754;2023-05-07T06:30:16;18.00;99.90
33715;DHT22;20043;50.998;4.754;2023-05-07T06:32:42;18.10;99.90
33715;DHT22;20043;50.998;4.754;2023-05-07T06:35:08;18.20;99.90
33715;DHT22;20043;50.998;4.754;2023-05-07T06:37:34;18.20;99.90
33715;DHT22;20043;50.998;4.754;2023-05-07T06:39:59;18.10;99.90
33715;DHT22;20043;50.998;4.754;2023-05-07T06:42:25;18.10;99.90
33715;DHT22;20043;50.998;4.754;2023-05-07T06:44:51;18.30;99.90
33715;DHT22;20043;50.998;4.754;2023-05-07T06:47:17;18.40;99.90
33715;DHT22;20043;50.998;4.754;2023-05-07T06:49:50;18.50;99.90
33715;DHT22;20043;50.998;4.754;2023-05-07T06:52:15;18.50;99.90
33715;DHT22;20043;50.998;4.754;2023-05-07T06:54:41;18.50;99.90
33715;DHT22;20043;50.998;4.754;2023-05-07T06:57:13;18.60;99.90
33715;DHT22;20043;50.998;4.754;2023-05-07T06:59:38;18.70;99.90
33715;DHT22;20043;50.998;4.754;2023-05-07T07:02:04;18.70;99.90
33715;DHT22;20043;50.998;4.754;2023-05-07T07:04:29;18.50;99.90
33715;DHT22;20043;50.998;4.754;2023-05-07T07:06:56;18.40;99.90
33715;DHT22;20043;50.998;4.754;2023-05-07T07:09:22;18.40;99.90
33715;DHT22;20043;50.998;4.754;2023-05-07T07:11:48;18.30;99.90
33715;DHT22;20043;50.998;4.754;2023-05-07T07:14:13;18.30;99.90
33715;DHT22;20043;50.998;4.754;2023-05-07T07:16:39;18.30;99.90
33715;DHT22;20043;50.998;4.754;2023-05-07T07:19:06;18.20;99.90
33715;DHT22;20043;50.998;4.754;2023-05-07T07:21:31;18.20;99.90
33715;DHT22;20043;50.998;4.754;2023-05-07T07:23:57;18.20;99.90
33715;DHT22;20043;50.998;4.754;2023-05-07T07:26:23;18.20;99.90
33715;DHT22;20043;50.998;4.754;2023-05-07T07:28:48;18.20;99.90
33715;DHT22;20043;50.998;4.754;2023-05-07T07:31:14;18.00;99.90
33715;DHT22;20043;50.998;4.754;2023-05-07T07:33:40;18.00;99.90
33715;DHT22;20043;50.998;4.754;2023-05-07T07:36:06;18.00;99.90
33715;DHT22;20043;50.998;4.754;2023-05-07T07:38:33;18.10;99.90
33715;DHT22;20043;50.998;4.754;2023-05-07T07:40:59;18.10;99.90
33715;DHT22;20043;50.998;4.754;2023-05-07T07:43:25;18.20;99.90
33715;DHT22;20043;50.998;4.754;2023-05-07T07:45:51;18.30;99.90
33715;DHT22;20043;50.998;4.754;2023-05-07T07:48:16;18.50;99.90
33715;DHT22;20043;50.998;4.754;2023-05-07T07:50:42;18.70;99.90
33715;DHT22;20043;50.998;4.754;2023-05-07T07:53:08;18.80;99.90
33715;DHT22;20043;50.998;4.754;2023-05-07T07:55:38;18.80;99.90
33715;DHT22;20043;50.998;4.754;2023-05-07T07:58:04;18.80;99.90
33715;DHT22;20043;50.998;4.754;2023-05-07T08:00:37;18.90;99.90
33715;DHT22;20043;50.998;4.754;2023-05-07T08:03:02;19.00;99.90
33715;DHT22;20043;50.998;4.754;2023-05-07T08:05:29;19.10;99.90
33715;DHT22;20043;50.998;4.754;2023-05-07T08:07:54;19.00;99.90
33715;DHT22;20043;50.998;4.754;2023-05-07T08:10:21;19.00;99.90
33715;DHT22;20043;50.998;4.754;2023-05-07T08:12:50;19.00;99.90
33715;DHT22;20043;50.998;4.754;2023-05-07T08:15:16;18.90;99.90
33715;DHT22;20043;50.998;4.754;2023-05-07T08:17:42;19.00;99.90
33715;DHT22;20043;50.998;4.754;2023-05-07T08:20:08;19.20;99.90
33715;DHT22;20043;50.998;4.754;2023-05-07T08:22:35;19.20;99.90
33715;DHT22;20043;50.998;4.754;2023-05-07T08:25:01;19.20;99.90
33715;DHT22;20043;50.998;4.754;2023-05-07T08:27:27;19.20;99.90
33715;DHT22;20043;50.998;4.754;2023-05-07T08:29:53;19.20;99.90
33715;DHT22;20043;50.998;4.754;2023-05-07T08:32:18;19.20;99.90
33715;DHT22;20043;50.998;4.754;2023-05-07T08:34:44;19.30;99.90
33715;DHT22;20043;50.998;4.754;2023-05-07T08:37:10;19.30;99.90
33715;DHT22;20043;50.998;4.754;2023-05-07T08:39:35;19.10;99.90
33715;DHT22;20043;50.998;4.754;2023-05-07T08:42:01;19.20;99.90
33715;DHT22;20043;50.998;4.754;2023-05-07T08:44:32;19.10;99.90
33715;DHT22;20043;50.998;4.754;2023-05-07T08:47:00;19.20;99.90
33715;DHT22;20043;50.998;4.754;2023-05-07T08:49:27;19.30;99.90
33715;DHT22;20043;50.998;4.754;2023-05-07T08:51:53;19.20;99.90
33715;DHT22;20043;50.998;4.754;2023-05-07T08:54:19;19.30;99.90
33715;DHT22;20043;50.998;4.754;2023-05-07T08:56:45;19.20;99.90
33715;DHT22;20043;50.998;4.754;2023-05-07T08:59:11;19.20;99.90
33715;DHT22;20043;50.998;4.754;2023-05-07T09:01:37;19.20;99.90
33715;DHT22;20043;50.998;4.754;2023-05-07T09:04:04;19.20;99.90
33715;DHT22;20043;50.998;4.754;2023-05-07T09:06:29;19.20;99.90
33715;DHT22;20043;50.998;4.754;2023-05-07T09:08:55;19.30;99.90
33715;DHT22;20043;50.998;4.754;2023-05-07T09:11:23;19.20;99.90
33715;DHT22;20043;50.998;4.754;2023-05-07T09:13:53;19.20;99.90
33715;DHT22;20043;50.998;4.754;2023-05-07T09:16:21;19.20;99.90
33715;DHT22;20043;50.998;4.754;2023-05-07T09:18:51;19.20;99.90
33715;DHT22;20043;50.998;4.754;2023-05-07T09:21:18;19.30;99.90
33715;DHT22;20043;50.998;4.754;2023-05-07T09:23:44;19.30;99.90
33715;DHT22;20043;50.998;4.754;2023-05-07T09:26:09;19.30;99.90
33715;DHT22;20043;50.998;4.754;2023-05-07T09:28:43;19.30;99.90
33715;DHT22;20043;50.998;4.754;2023-05-07T09:31:11;19.40;99.90
33715;DHT22;20043;50.998;4.754;2023-05-07T09:33:37;19.40;99.90
33715;DHT22;20043;50.998;4.754;2023-05-07T09:36:07;19.40;99.90
33715;DHT22;20043;50.998;4.754;2023-05-07T09:38:33;19.30;99.90
33715;DHT22;20043;50.998;4.754;2023-05-07T09:41:08;19.40;99.90
33715;DHT22;20043;50.998;4.754;2023-05-07T09:43:35;19.40;99.90
33715;DHT22;20043;50.998;4.754;2023-05-07T09:48:34;19.40;99.90
33715;DHT22;20043;50.998;4.754;2023-05-07T09:51:02;19.40;99.90
33715;DHT22;20043;50.998;4.754;2023-05-07T09:53:33;19.20;99.90
33715;DHT22;20043;50.998;4.754;2023-05-07T09:55:59;19.10;99.90
33715;DHT22;20043;50.998;4.754;2023-05-07T09:58:26;19.10;99.90
33715;DHT22;20043;50.998;4.754;2023-05-07T10:00:52;19.20;99.90
33715;DHT22;20043;50.998;4.754;2023-05-07T10:03:19;19.20;99.90
33715;DHT22;20043;50.998;4.754;2023-05-07T10:05:46;19.30;99.90
33715;DHT22;20043;50.998;4.754;2023-05-07T10:08:13;19.30;99.90
33715;DHT22;20043;50.998;4.754;2023-05-07T10:10:42;19.30;99.90
33715;DHT22;20043;50.998;4.754;2023-05-07T10:13:08;19.30;99.90
33715;DHT22;20043;50.998;4.754;2023-05-07T10:15:36;19.30;99.90
33715;DHT22;20043;50.998;4.754;2023-05-07T10:18:03;19.30;99.90
33715;DHT22;20043;50.998;4.754;2023-05-07T10:20:30;19.40;99.90
33715;DHT22;20043;50.998;4.754;2023-05-07T10:22:57;19.50;99.90
33715;DHT22;20043;50.998;4.754;2023-05-07T10:25:30;19.50;99.90
33715;DHT22;20043;50.998;4.754;2023-05-07T10:27:58;19.40;99.90
33715;DHT22;20043;50.998;4.754;2023-05-07T10:33:29;19.60;99.90
33715;DHT22;20043;50.998;4.754;2023-05-07T10:36:00;19.60;99.90
33715;DHT22;20043;50.998;4.754;2023-05-07T10:38:27;19.40;99.90
33715;DHT22;20043;50.998;4.754;2023-05-07T10:40:53;19.30;99.90
33715;DHT22;20043;50.998;4.754;2023-05-07T10:43:19;19.10;99.90
33715;DHT22;20043;50.998;4.754;2023-05-07T10:46:15;19.10;99.90
33715;DHT22;20043;50.998;4.754;2023-05-07T10:49:10;19.10;99.90
33715;DHT22;20043;50.998;4.754;2023-05-07T10:51:37;19.20;99.90
33715;DHT22;20043;50.998;4.754;2023-05-07T10:56:38;19.30;99.90
33715;DHT22;20043;50.998;4.754;2023-05-07T11:04:23;19.30;99.90
33715;DHT22;20043;50.998;4.754;2023-05-07T11:15:12;19.30;99.90
33715;DHT22;20043;50.998;4.754;2023-05-07T11:17:57;19.40;99.90
33715;DHT22;20043;50.998;4.754;2023-05-07T11:26:05;19.60;99.90
33715;DHT22;20043;50.998;4.754;2023-05-07T11:28:39;19.60;99.90
33715;DHT22;20043;50.998;4.754;2023-05-07T11:31:05;19.60;99.90
33715;DHT22;20043;50.998;4.754;2023-05-07T11:33:32;19.50;99.90
33715;DHT22;20043;50.998;4.754;2023-05-07T11:35:58;19.60;99.90
33715;DHT22;20043;50.998;4.754;2023-05-07T11:38:25;19.70;99.90
33715;DHT22;20043;50.998;4.754;2023-05-07T11:40:51;19.80;99.90
33715;DHT22;20043;50.998;4.754;2023-05-07T11:43:17;19.70;99.90
33715;DHT22;20043;50.998;4.754;2023-05-07T11:45:44;19.70;99.90
33715;DHT22;20043;50.998;4.754;2023-05-07T11:48:12;19.70;99.90
33715;DHT22;20043;50.998;4.754;2023-05-07T11:53:25;19.90;99.90
33715;DHT22;20043;50.998;4.754;2023-05-07T11:55:58;19.90;99.90
33715;DHT22;20043;50.998;4.754;2023-05-07T11:58:24;20.00;99.90
33715;DHT22;20043;50.998;4.754;2023-05-07T12:00:54;20.00;99.90
33715;DHT22;20043;50.998;4.754;2023-05-07T12:03:20;19.90;99.90
33715;DHT22;20043;50.998;4.754;2023-05-07T12:05:47;20.00;99.90
33715;DHT22;20043;50.998;4.754;2023-05-07T12:08:17;20.00;99.90
33715;DHT22;20043;50.998;4.754;2023-05-07T12:10:43;20.10;99.90
33715;DHT22;20043;50.998;4.754;2023-05-07T12:13:22;20.00;99.90
33715;DHT22;20043;50.998;4.754;2023-05-07T12:15:52;19.80;99.90
33715;DHT22;20043;50.998;4.754;2023-05-07T12:18:18;20.00;99.90
33715;DHT22;20043;50.998;4.754;2023-05-07T12:20:44;20.20;99.90
33715;DHT22;20043;50.998;4.754;2023-05-07T12:23:10;20.30;99.90
33715;DHT22;20043;50.998;4.754;2023-05-07T12:25:41;20.30;99.90
33715;DHT22;20043;50.998;4.754;2023-05-07T12:28:15;20.20;99.90
33715;DHT22;20043;50.998;4.754;2023-05-07T12:30:42;20.30;99.90
33715;DHT22;20043;50.998;4.754;2023-05-07T12:33:08;20.20;99.90
33715;DHT22;20043;50.998;4.754;2023-05-07T12:35:43;20.20;99.90
33715;DHT22;20043;50.998;4.754;2023-05-07T12:38:14;20.40;99.90
33715;DHT22;20043;50.998;4.754;2023-05-07T12:40:44;20.40;99.90
33715;DHT22;20043;50.998;4.754;2023-05-07T12:43:21;20.40;99.90
33715;DHT22;20043;50.998;4.754;2023-05-07T12:45:50;20.40;99.90
33715;DHT22;20043;50.998;4.754;2023-05-07T12:48:17;20.40;99.90
33715;DHT22;20043;50.998;4.754;2023-05-07T12:50:42;20.40;99.90
33715;DHT22;20043;50.998;4.754;2023-05-07T12:53:10;20.50;99.90
33715;DHT22;20043;50.998;4.754;2023-05-07T12:55:41;20.40;99.90
33715;DHT22;20043;50.998;4.754;2023-05-07T12:58:08;20.50;99.90
33715;DHT22;20043;50.998;4.754;2023-05-07T13:00:37;20.50;99.90
33715;DHT22;20043;50.998;4.754;2023-05-07T13:03:04;20.50;99.90
33715;DHT22;20043;50.998;4.754;2023-05-07T13:05:31;20.40;99.90
33715;DHT22;20043;50.998;4.754;2023-05-07T13:07:57;20.40;99.90
33715;DHT22;20043;50.998;4.754;2023-05-07T13:10:23;20.30;99.90
33715;DHT22;20043;50.998;4.754;2023-05-07T13:12:50;20.20;99.90
33715;DHT22;20043;50.998;4.754;2023-05-07T13:15:16;20.30;99.90
33715;DHT22;20043;50.998;4.754;2023-05-07T13:17:42;20.40;99.90
33715;DHT22;20043;50.998;4.754;2023-05-07T13:20:11;20.40;99.90
33715;DHT22;20043;50.998;4.754;2023-05-07T13:22:38;20.40;99.90
33715;DHT22;20043;50.998;4.754;2023-05-07T13:25:05;20.30;99.90
33715;DHT22;20043;50.998;4.754;2023-05-07T13:27:31;20.20;99.90
33715;DHT22;20043;50.998;4.754;2023-05-07T13:29:57;20.20;99.90
33715;DHT22;20043;50.998;4.754;2023-05-07T13:32:22;20.20;99.90
33715;DHT22;20043;50.998;4.754;2023-05-07T13:34:48;20.30;99.90
33715;DHT22;20043;50.998;4.754;2023-05-07T13:37:14;20.40;99.90
33715;DHT22;20043;50.998;4.754;2023-05-07T13:39:39;20.50;99.90
33715;DHT22;20043;50.998;4.754;2023-05-07T13:42:06;20.60;99.90
33715;DHT22;20043;50.998;4.754;2023-05-07T13:44:32;20.60;99.90
33715;DHT22;20043;50.998;4.754;2023-05-07T13:46:57;20.70;99.90
33715;DHT22;20043;50.998;4.754;2023-05-07T13:49:23;20.70;99.90
33715;DHT22;20043;50.998;4.754;2023-05-07T13:51:49;20.70;99.90
33715;DHT22;20043;50.998;4.754;2023-05-07T13:54:14;20.70;99.90
33715;DHT22;20043;50.998;4.754;2023-05-07T13:56:41;20.70;99.90
33715;DHT22;20043;50.998;4.754;2023-05-07T13:59:07;20.70;99.90
33715;DHT22;20043;50.998;4.754;2023-05-07T14:01:32;20.80;99.90
33715;DHT22;20043;50.998;4.754;2023-05-07T14:03:58;20.90;99.90
33715;DHT22;20043;50.998;4.754;2023-05-07T14:06:25;20.90;99.90
33715;DHT22;20043;50.998;4.754;2023-05-07T14:08:50;21.20;99.90
33715;DHT22;20043;50.998;4.754;2023-05-07T14:11:16;21.10;99.90
33715;DHT22;20043;50.998;4.754;2023-05-07T14:13:42;21.00;99.90
33715;DHT22;20043;50.998;4.754;2023-05-07T14:16:07;21.10;99.90
33715;DHT22;20043;50.998;4.754;2023-05-07T14:18:33;21.20;99.90
33715;DHT22;20043;50.998;4.754;2023-05-07T14:20:59;21.20;99.90
33715;DHT22;20043;50.998;4.754;2023-05-07T14:23:25;21.30;99.90
33715;DHT22;20043;50.998;4.754;2023-05-07T14:25:52;21.20;99.90
33715;DHT22;20043;50.998;4.754;2023-05-07T14:28:18;21.30;99.90
33715;DHT22;20043;50.998;4.754;2023-05-07T14:30:44;21.20;99.90
33715;DHT22;20043;50.998;4.754;2023-05-07T14:33:10;21.20;99.90
33715;DHT22;20043;50.998;4.754;2023-05-07T14:35:36;21.20;99.90
33715;DHT22;20043;50.998;4.754;2023-05-07T14:38:01;21.20;99.90
33715;DHT22;20043;50.998;4.754;2023-05-07T14:40:27;21.10;99.90
33715;DHT22;20043;50.998;4.754;2023-05-07T14:42:52;21.10;99.90
33715;DHT22;20043;50.998;4.754;2023-05-07T14:45:18;21.20;99.90
33715;DHT22;20043;50.998;4.754;2023-05-07T14:47:44;21.20;99.90
33715;DHT22;20043;50.998;4.754;2023-05-07T14:50:09;21.20;99.90
33715;DHT22;20043;50.998;4.754;2023-05-07T14:52:35;21.20;99.90
33715;DHT22;20043;50.998;4.754;2023-05-07T14:55:00;21.20;99.90
33715;DHT22;20043;50.998;4.754;2023-05-07T14:57:26;21.30;99.90
33715;DHT22;20043;50.998;4.754;2023-05-07T14:59:52;21.40;99.90
33715;DHT22;20043;50.998;4.754;2023-05-07T15:02:17;21.20;99.90
33715;DHT22;20043;50.998;4.754;2023-05-07T15:04:43;21.30;99.90
33715;DHT22;20043;50.998;4.754;2023-05-07T15:07:19;21.50;99.90
33715;DHT22;20043;50.998;4.754;2023-05-07T15:09:44;21.60;99.90
33715;DHT22;20043;50.998;4.754;2023-05-07T15:12:17;21.70;99.90
33715;DHT22;20043;50.998;4.754;2023-05-07T15:14:42;21.60;99.90
33715;DHT22;20043;50.998;4.754;2023-05-07T15:17:08;21.70;99.90
33715;DHT22;20043;50.998;4.754;2023-05-07T15:19:40;21.50;99.90
33715;DHT22;20043;50.998;4.754;2023-05-07T15:22:06;21.50;99.90
33715;DHT22;20043;50.998;4.754;2023-05-07T15:24:31;21.50;99.90
33715;DHT22;20043;50.998;4.754;2023-05-07T15:26:57;21.60;99.90
33715;DHT22;20043;50.998;4.754;2023-05-07T15:29:23;21.70;99.90
33715;DHT22;20043;50.998;4.754;2023-05-07T15:31:50;21.40;99.90
33715;DHT22;20043;50.998;4.754;2023-05-07T15:34:17;21.40;99.90
33715;DHT22;20043;50.998;4.754;2023-05-07T15:36:42;21.40;99.90
33715;DHT22;20043;50.998;4.754;2023-05-07T15:39:08;21.40;99.90
33715;DHT22;20043;50.998;4.754;2023-05-07T15:41:35;21.40;99.90
33715;DHT22;20043;50.998;4.754;2023-05-07T15:44:02;21.50;99.90
33715;DHT22;20043;50.998;4.754;2023-05-07T15:46:28;21.40;99.90
33715;DHT22;20043;50.998;4.754;2023-05-07T15:48:53;21.20;99.90
33715;DHT22;20043;50.998;4.754;2023-05-07T15:51:19;21.20;99.90
33715;DHT22;20043;50.998;4.754;2023-05-07T15:53:45;21.30;99.90
33715;DHT22;20043;50.998;4.754;2023-05-07T15:56:11;21.30;99.90